Terminal Aerodrome Forecast
Issued by NWS Upton, NY

Home | Current Version | Previous Version | Text Only | Print | Product List | Glossary On
Versions: 1 2 3 4 5 6 7 8 9 10 11 12 13 14 15 16 17 18 19 20 21 22 23 24 25 26 27 28 29 30 31 32
682
FTUS41 KOKX 290833 AAA
TAFLGA
TAF AMD
KLGA 290833Z 2909/3006 VRB05KT P6SM SKC
     FM291300 23006KT P6SM SKC
     FM291600 19008KT P6SM SCT250
     FM291900 17011KT P6SM BKN200
     FM300100 18008KT P6SM VCSH SCT015 BKN150
     FM300300 19006KT 4SM -SHRA BR BKN015 OVC100=

USA.gov is the U.S. government's official web portal to all federal, state and local government web resources and services.